| Date | Time | Temp. (oF) | Dew Point (oF) | Rel. Hum. (%) | Press. (in.) | Wind Dir. | Wind Speed (mph) | Hourly Rainfall (in.) |
|
|---|---|---|---|---|---|---|---|---|---|
| 1 | 04/18 | 00:00 | 51 | 37 | 60 | 30.20 | SSW | 0 | 0.00 |
| 2 | 04/17 | 23:00 | 54 | 35 | 49 | 30.20 | SW | 0 | 0.00 |
| 3 | 04/17 | 22:00 | 59 | 36 | 43 | 30.20 | SSW | 0 | 0.00 |
| 4 | 04/17 | 21:00 | 62 | 33 | 34 | 30.20 | SSW | 0 | 0.00 |
| 5 | 04/17 | 20:00 | 68 | 32 | 27 | 30.19 | SSW | 0 | 0.00 |
| 6 | 04/17 | 19:00 | 71 | 31 | 24 | 30.19 | SSW | 0 | 0.00 |
| 7 | 04/17 | 18:00 | 72 | 32 | 24 | 30.20 | SW | 0 | 0.00 |
| 8 | 04/17 | 17:00 | 71 | 31 | 24 | 30.21 | SW | 2 | 0.00 |
| 9 | 04/17 | 16:00 | 71 | 31 | 24 | 30.25 | W | 0 | 0.00 |
| 10 | 04/17 | 15:00 | 69 | 35 | 30 | 30.29 | S | 0 | 0.00 |
| 11 | 04/17 | 14:00 | 67 | 39 | 37 | 30.31 | S | 0 | 0.00 |
| 12 | 04/17 | 13:00 | 64 | 39 | 41 | 30.34 | NE | 0 | 0.00 |
| 13 | 04/17 | 12:00 | 60 | 37 | 43 | 30.37 | SSW | 0 | 0.00 |
| 14 | 04/17 | 11:00 | 57 | 36 | 47 | 30.40 | SW | 0 | 0.00 |
| 15 | 04/17 | 10:00 | 52 | 31 | 46 | 30.41 | W | 0 | 0.00 |
| 16 | 04/17 | 09:00 | 48 | 33 | 56 | 30.41 | S | 0 | 0.00 |
| 17 | 04/17 | 08:00 | 42 | 35 | 79 | 30.41 | E | 0 | 0.00 |
| 18 | 04/17 | 07:00 | 38 | 31 | 78 | 30.40 | ENE | 0 | 0.00 |
| 19 | 04/17 | 06:00 | 38 | 31 | 76 | 30.39 | NE | 0 | 0.00 |
| 20 | 04/17 | 05:00 | 39 | 29 | 68 | 30.37 | N | 0 | 0.00 |
| 21 | 04/17 | 04:00 | 42 | 30 | 63 | 30.36 | ESE | 0 | 0.00 |
| 22 | 04/17 | 03:00 | 43 | 31 | 63 | 30.37 | ESE | 0 | 0.00 |
| 23 | 04/17 | 02:00 | 44 | 32 | 65 | 30.37 | SE | 0 | 0.00 |
| 24 | 04/17 | 01:00 | 45 | 33 | 65 | 30.36 | ESE | 0 | 0.00 |